Time;durP1;ratioP1;P1;durP2;ratioP2;P2;SDS_P1;SDS_P2;PMS_P1;PMS_P2;Temp;Humidity;BMP_temperature;BMP_pressure;BME280_temperature;BME280_humidity;BME280_pressure;Samples;Min_cycle;Max_cycle;Signal;HPM_P1;HPM_P2
2023/04/07 02:00:18;;;;;;;9.90;5.95;;;;;;;;;;4968755;28;20047;-67
2023/04/07 02:02:47;;;;;;;32.28;5.28;;;;;;;;;;4230979;33;20131;-69
2023/04/07 02:05:16;;;;;;;7.12;4.97;;;;;;;;;;4239215;33;20050;-68
2023/04/07 02:07:51;;;;;;;12.30;4.05;;;;;;;;;;4239107;33;20043;-69
2023/04/07 02:10:20;;;;;;;11.30;5.75;;;;;;;;;;4238317;33;20064;-69
2023/04/07 02:12:46;;;;;;;27.42;6.05;;;;;;;;;;4223414;34;20054;-71
2023/04/07 02:15:14;;;;;;;16.25;5.75;;;;;;;;;;4206393;34;20035;-69
2023/04/07 02:17:43;;;;;;;19.85;5.55;;;;;;;;;;4209018;34;21077;-69
2023/04/07 02:20:10;;;;;;;11.25;5.80;;;;;;;;;;4209158;34;20595;-69
2023/04/07 02:22:40;;;;;;;22.08;6.62;;;;;;;;;;4210110;34;20106;-69
2023/04/07 02:25:22;;;;;;;42.25;5.93;;;;;;;;;;4206123;34;20061;-71
2023/04/07 02:27:48;;;;;;;15.23;5.25;;;;;;;;;;4209349;34;20079;-69
2023/04/07 02:30:14;;;;;;;28.90;6.62;;;;;;;;;;4210295;34;20468;-68
2023/04/07 02:32:41;;;;;;;20.05;5.70;;;;;;;;;;4208726;34;20220;-70
2023/04/07 02:35:07;;;;;;;29.25;6.40;;;;;;;;;;4206479;34;20873;-70
2023/04/07 02:37:34;;;;;;;21.33;6.75;;;;;;;;;;4208955;34;20476;-69
2023/04/07 02:40:01;;;;;;;11.95;6.60;;;;;;;;;;4195499;34;20825;-69
2023/04/07 02:42:27;;;;;;;8.95;4.62;;;;;;;;;;4189707;34;20047;-70
2023/04/07 02:44:54;;;;;;;12.45;5.28;;;;;;;;;;4206532;34;20043;-73
2023/04/07 02:47:20;;;;;;;18.48;6.18;;;;;;;;;;4209272;34;20435;-69
2023/04/07 02:49:48;;;;;;;15.63;4.68;;;;;;;;;;4214178;34;20072;-70
2023/04/07 02:52:15;;;;;;;15.68;4.35;;;;;;;;;;4236923;33;20066;-69
2023/04/07 02:54:41;;;;;;;19.95;5.93;;;;;;;;;;4238490;33;20064;-69
2023/04/07 02:57:07;;;;;;;8.65;5.70;;;;;;;;;;4236158;33;20059;-71
2023/04/07 02:59:33;;;;;;;14.57;4.75;;;;;;;;;;4238296;33;20043;-69
2023/04/07 03:02:00;;;;;;;15.73;5.47;;;;;;;;;;4238100;33;20054;-69
2023/04/07 03:04:27;;;;;;;24.75;5.93;;;;;;;;;;4235751;33;20055;-69
2023/04/07 03:06:55;;;;;;;12.65;5.65;;;;;;;;;;4235317;33;20039;-69
2023/04/07 03:09:21;;;;;;;9.93;5.35;;;;;;;;;;4233694;33;20118;-69
2023/04/07 03:11:48;;;;;;;13.88;6.22;;;;;;;;;;4235535;33;20051;-69
2023/04/07 03:14:15;;;;;;;14.13;5.12;;;;;;;;;;4235998;33;20430;-69
2023/04/07 03:16:41;;;;;;;10.10;5.40;;;;;;;;;;4210257;34;20051;-68
2023/04/07 03:19:08;;;;;;;9.50;5.45;;;;;;;;;;4206837;34;20073;-71
2023/04/07 03:21:36;;;;;;;9.73;4.82;;;;;;;;;;4206052;34;20054;-69
2023/04/07 03:24:03;;;;;;;10.90;5.03;;;;;;;;;;4207982;34;20172;-69
2023/04/07 03:26:29;;;;;;;21.15;5.78;;;;;;;;;;4207072;34;20043;-69
2023/04/07 03:28:56;;;;;;;13.57;4.93;;;;;;;;;;4208329;34;20035;-68
2023/04/07 03:31:22;;;;;;;12.65;5.32;;;;;;;;;;4205951;34;20047;-69
2023/04/07 03:33:49;;;;;;;7.95;5.20;;;;;;;;;;4207614;34;20073;-69
2023/04/07 03:36:17;;;;;;;14.40;5.00;;;;;;;;;;4207074;34;20184;-68
2023/04/07 03:38:45;;;;;;;8.02;4.80;;;;;;;;;;4207074;34;20047;-68
2023/04/07 03:41:12;;;;;;;7.18;4.85;;;;;;;;;;4192420;34;20051;-71
2023/04/07 03:43:40;;;;;;;6.78;4.55;;;;;;;;;;4180339;34;20036;-69
2023/04/07 03:46:06;;;;;;;10.05;5.28;;;;;;;;;;4180955;34;20181;-68
2023/04/07 03:48:33;;;;;;;10.52;5.22;;;;;;;;;;4188568;34;20065;-68
2023/04/07 03:51:00;;;;;;;12.55;6.30;;;;;;;;;;4193072;34;20051;-69
2023/04/07 03:53:26;;;;;;;9.35;6.03;;;;;;;;;;4201081;34;20113;-71
2023/04/07 03:55:53;;;;;;;13.73;6.82;;;;;;;;;;4207865;34;20047;-68
2023/04/07 03:58:19;;;;;;;24.42;7.32;;;;;;;;;;4207379;34;20072;-68
2023/04/07 04:00:46;;;;;;;13.52;6.62;;;;;;;;;;4208272;34;20388;-68
2023/04/07 04:03:12;;;;;;;23.55;6.32;;;;;;;;;;4207195;34;20048;-68
2023/04/07 04:05:40;;;;;;;19.98;7.78;;;;;;;;;;4205969;34;20077;-68
2023/04/07 04:08:06;;;;;;;49.30;7.70;;;;;;;;;;4208113;34;20588;-68
2023/04/07 04:10:33;;;;;;;26.85;7.68;;;;;;;;;;4206820;34;20063;-68
2023/04/07 04:12:59;;;;;;;30.75;8.18;;;;;;;;;;4208216;34;20092;-68
2023/04/07 04:15:25;;;;;;;49.55;6.53;;;;;;;;;;4230668;33;20385;-68
2023/04/07 04:17:52;;;;;;;50.28;7.93;;;;;;;;;;4236226;33;20412;-69
2023/04/07 04:20:21;;;;;;;13.50;6.37;;;;;;;;;;4235643;33;20433;-68
2023/04/07 04:22:47;;;;;;;42.40;6.65;;;;;;;;;;4231276;33;20064;-69
2023/04/07 04:25:15;;;;;;;21.60;7.82;;;;;;;;;;4234008;33;20157;-68
2023/04/07 04:27:42;;;;;;;26.20;6.78;;;;;;;;;;4235170;33;20046;-68
2023/04/07 04:30:09;;;;;;;28.95;7.45;;;;;;;;;;4233204;33;20035;-68
2023/04/07 04:32:35;;;;;;;42.22;5.75;;;;;;;;;;4235976;33;20980;-68
2023/04/07 04:35:02;;;;;;;40.78;9.40;;;;;;;;;;4234789;33;20046;-68
2023/04/07 04:37:29;;;;;;;35.35;7.60;;;;;;;;;;4235148;33;20056;-68
2023/04/07 04:39:56;;;;;;;30.95;6.50;;;;;;;;;;4219636;34;20103;-71
2023/04/07 04:42:22;;;;;;;51.15;7.47;;;;;;;;;;4220550;34;20405;-68
2023/04/07 04:44:50;;;;;;;40.38;8.20;;;;;;;;;;4193699;34;20083;-68
2023/04/07 04:47:17;;;;;;;27.67;6.03;;;;;;;;;;4194500;34;20518;-68
2023/04/07 04:49:43;;;;;;;25.23;7.68;;;;;;;;;;4194757;34;20069;-69
2023/04/07 04:52:09;;;;;;;24.05;8.45;;;;;;;;;;4193904;34;20048;-70
2023/04/07 04:54:36;;;;;;;27.35;7.97;;;;;;;;;;4193113;34;20470;-68
2023/04/07 04:57:02;;;;;;;42.62;7.57;;;;;;;;;;4193487;34;20546;-68
2023/04/07 04:59:28;;;;;;;89.55;8.45;;;;;;;;;;4193160;34;20077;-68
2023/04/07 05:01:55;;;;;;;35.47;7.20;;;;;;;;;;4168282;34;20063;-68
2023/04/07 05:04:21;;;;;;;45.50;10.30;;;;;;;;;;4180326;34;20178;-68
2023/04/07 05:06:48;;;;;;;58.00;8.52;;;;;;;;;;4180043;34;20056;-67
2023/04/07 05:09:16;;;;;;;17.08;5.68;;;;;;;;;;4166156;34;20066;-68
2023/04/07 05:11:42;;;;;;;50.10;10.85;;;;;;;;;;4138462;34;20055;-67
2023/04/07 05:14:08;;;;;;;29.95;7.60;;;;;;;;;;4138511;34;20045;-68
2023/04/07 05:16:35;;;;;;;42.88;8.15;;;;;;;;;;4155598;34;20040;-68
2023/04/07 05:19:03;;;;;;;26.40;7.65;;;;;;;;;;4165036;34;20069;-68
2023/04/07 05:21:30;;;;;;;54.28;9.75;;;;;;;;;;4165736;34;20032;-68
2023/04/07 05:23:58;;;;;;;48.70;7.55;;;;;;;;;;4165398;34;20112;-68
2023/04/07 05:26:24;;;;;;;34.83;8.25;;;;;;;;;;4164605;34;20205;-68
2023/04/07 05:28:50;;;;;;;36.17;7.20;;;;;;;;;;4164480;34;20043;-68
2023/04/07 05:31:24;;;;;;;27.87;7.85;;;;;;;;;;4165067;34;20513;-68
2023/04/07 05:33:51;;;;;;;18.67;7.78;;;;;;;;;;4166576;34;20434;-68
2023/04/07 05:36:19;;;;;;;35.15;6.47;;;;;;;;;;4177569;34;20066;-68
2023/04/07 05:38:45;;;;;;;33.50;7.22;;;;;;;;;;4176577;34;20398;-67
2023/04/07 05:41:12;;;;;;;13.48;5.90;;;;;;;;;;4180078;34;20476;-66
2023/04/07 05:43:38;;;;;;;15.40;6.10;;;;;;;;;;4192820;34;20051;-66
2023/04/07 05:46:06;;;;;;;34.55;6.85;;;;;;;;;;4198655;34;20069;-66
2023/04/07 05:48:33;;;;;;;25.20;4.78;;;;;;;;;;4206479;34;20042;-66
2023/04/07 05:50:59;;;;;;;20.85;6.35;;;;;;;;;;4207871;34;20047;-66
2023/04/07 05:53:26;;;;;;;25.90;6.15;;;;;;;;;;4207923;34;20613;-66
2023/04/07 05:55:51;;;;;;;22.10;5.97;;;;;;;;;;4207546;34;20047;-67
2023/04/07 05:58:19;;;;;;;46.53;6.25;;;;;;;;;;4208070;34;20051;-67
2023/04/07 06:00:46;;;;;;;41.40;7.85;;;;;;;;;;4207475;34;20112;-70
2023/04/07 06:03:13;;;;;;;26.35;6.93;;;;;;;;;;4208396;34;20055;-66
2023/04/07 06:05:42;;;;;;;28.85;6.93;;;;;;;;;;4208784;34;20058;-67
2023/04/07 06:08:10;;;;;;;39.17;7.30;;;;;;;;;;4199027;34;20064;-67
2023/04/07 06:10:36;;;;;;;45.90;7.75;;;;;;;;;;4206661;34;20088;-67
2023/04/07 06:13:03;;;;;;;29.63;7.43;;;;;;;;;;4208290;34;20154;-67
2023/04/07 06:15:28;;;;;;;40.40;6.78;;;;;;;;;;4208720;34;20103;-68
2023/04/07 06:17:55;;;;;;;39.85;7.43;;;;;;;;;;4208691;34;20069;-65
2023/04/07 06:20:23;;;;;;;30.65;8.27;;;;;;;;;;4207801;34;20179;-66
2023/04/07 06:22:50;;;;;;;17.62;6.07;;;;;;;;;;4205847;34;20047;-67
2023/04/07 06:25:17;;;;;;;45.05;7.55;;;;;;;;;;4208235;34;20912;-66
2023/04/07 06:27:43;;;;;;;44.63;7.70;;;;;;;;;;4208925;34;20051;-65
2023/04/07 06:30:09;;;;;;;29.17;7.22;;;;;;;;;;4207485;34;20114;-67
2023/04/07 06:32:36;;;;;;;34.78;7.60;;;;;;;;;;4208602;34;20132;-66
2023/04/07 06:35:02;;;;;;;42.70;8.05;;;;;;;;;;4204051;34;20098;-67
2023/04/07 06:37:29;;;;;;;30.17;7.50;;;;;;;;;;4207432;34;20176;-66
2023/04/07 06:39:56;;;;;;;19.00;6.70;;;;;;;;;;4214262;34;20381;-66
2023/04/07 06:42:22;;;;;;;28.77;6.62;;;;;;;;;;4234293;33;20273;-67
2023/04/07 06:44:48;;;;;;;52.65;9.88;;;;;;;;;;4233709;33;20077;-69
2023/04/07 06:47:15;;;;;;;34.92;11.32;;;;;;;;;;4232028;33;20058;-66
2023/04/07 06:49:41;;;;;;;19.95;7.68;;;;;;;;;;4222901;33;20058;-66
2023/04/07 06:52:07;;;;;;;24.20;10.15;;;;;;;;;;4231248;33;20034;-66
2023/04/07 06:54:33;;;;;;;27.50;8.43;;;;;;;;;;4232327;33;20053;-67
2023/04/07 06:57:00;;;;;;;40.42;9.52;;;;;;;;;;4231495;33;20049;-66
2023/04/07 06:59:26;;;;;;;31.75;14.13;;;;;;;;;;4232174;33;20046;-67
2023/04/07 07:01:52;;;;;;;18.70;6.57;;;;;;;;;;4217665;34;20055;-66
2023/04/07 07:04:18;;;;;;;14.60;6.32;;;;;;;;;;4203532;34;20039;-66
2023/04/07 07:06:51;;;;;;;46.90;7.80;;;;;;;;;;4190174;34;20051;-69
2023/04/07 07:09:17;;;;;;;23.55;8.07;;;;;;;;;;4191585;34;20139;-66
2023/04/07 07:11:43;;;;;;;35.70;11.73;;;;;;;;;;4191091;34;20193;-66
2023/04/07 07:14:09;;;;;;;29.83;12.27;;;;;;;;;;4170231;34;20432;-66
2023/04/07 07:16:36;;;;;;;39.03;9.88;;;;;;;;;;4177394;34;20089;-67
2023/04/07 07:19:02;;;;;;;39.72;8.75;;;;;;;;;;4191840;34;20067;-69
2023/04/07 07:21:28;;;;;;;49.33;8.90;;;;;;;;;;4192589;34;20267;-67
2023/04/07 07:23:54;;;;;;;33.85;7.93;;;;;;;;;;4194811;34;20066;-67
2023/04/07 07:26:20;;;;;;;37.17;7.82;;;;;;;;;;4178928;34;20077;-66
2023/04/07 07:28:46;;;;;;;42.88;8.90;;;;;;;;;;4178399;34;20714;-69
2023/04/07 07:31:14;;;;;;;63.17;14.35;;;;;;;;;;4176199;34;20060;-67
2023/04/07 07:33:42;;;;;;;44.25;12.95;;;;;;;;;;4167570;34;20067;-67
2023/04/07 07:36:09;;;;;;;37.03;7.25;;;;;;;;;;4126771;34;20423;-67
2023/04/07 07:38:35;;;;;;;44.15;11.77;;;;;;;;;;4133219;34;20402;-66
2023/04/07 07:41:01;;;;;;;36.75;7.55;;;;;;;;;;4135998;34;20044;-67
2023/04/07 07:43:27;;;;;;;33.88;9.27;;;;;;;;;;4143444;34;20080;-68
2023/04/07 07:45:54;;;;;;;39.83;7.50;;;;;;;;;;4146549;34;20090;-68
2023/04/07 07:48:20;;;;;;;24.83;7.85;;;;;;;;;;4150017;34;20116;-67
2023/04/07 07:50:47;;;;;;;34.20;8.93;;;;;;;;;;4143956;34;20102;-68
2023/04/07 07:53:20;;;;;;;35.33;8.80;;;;;;;;;;4137257;34;20164;-67
2023/04/07 07:55:46;;;;;;;;;;;;;;;;;;4137026;34;20102;-67
2023/04/07 07:58:12;;;;;;;29.75;7.12;;;;;;;;;;4150421;34;19964;-67
2023/04/07 08:00:38;;;;;;;18.70;8.05;;;;;;;;;;4162945;34;20093;-67
2023/04/07 08:03:05;;;;;;;18.23;7.40;;;;;;;;;;4166005;34;20041;-67
2023/04/07 08:05:31;;;;;;;33.75;7.53;;;;;;;;;;4164878;34;20455;-71
2023/04/07 08:07:57;;;;;;;25.05;8.43;;;;;;;;;;4175279;34;20419;-67
2023/04/07 08:10:24;;;;;;;19.02;7.40;;;;;;;;;;4194343;34;20121;-68
2023/04/07 08:12:50;;;;;;;17.35;7.53;;;;;;;;;;4206549;34;20551;-67
2023/04/07 08:15:16;;;;;;;15.25;7.20;;;;;;;;;;4207248;34;20051;-67
2023/04/07 08:17:42;;;;;;;13.57;9.30;;;;;;;;;;4214261;34;20213;-71
2023/04/07 08:20:10;;;;;;;16.23;7.72;;;;;;;;;;4220372;34;20080;-67
2023/04/07 08:22:36;;;;;;;15.25;8.82;;;;;;;;;;4220594;33;20495;-68
2023/04/07 08:25:03;;;;;;;11.93;6.57;;;;;;;;;;4221333;33;20070;-67
2023/04/07 08:27:29;;;;;;;14.82;7.68;;;;;;;;;;4193056;34;20063;-68
2023/04/07 08:29:59;;;;;;;14.38;7.20;;;;;;;;;;4196074;34;20051;-70
2023/04/07 08:32:32;;;;;;;21.05;9.93;;;;;;;;;;4194439;34;20055;-68
2023/04/07 08:34:59;;;;;;;23.87;11.12;;;;;;;;;;4195477;34;20111;-68
2023/04/07 08:37:25;;;;;;;19.55;9.75;;;;;;;;;;4194778;34;20104;-68
2023/04/07 08:39:51;;;;;;;17.20;7.72;;;;;;;;;;4178845;34;20482;-68
2023/04/07 08:42:18;;;;;;;20.45;9.15;;;;;;;;;;4181604;34;20111;-67
2023/04/07 08:44:46;;;;;;;21.27;8.25;;;;;;;;;;4178506;34;20056;-67
2023/04/07 08:47:14;;;;;;;13.90;7.53;;;;;;;;;;4179548;34;20047;-68
2023/04/07 08:49:41;;;;;;;17.58;8.75;;;;;;;;;;4177770;34;20081;-70
2023/04/07 08:52:10;;;;;;;20.92;10.48;;;;;;;;;;4177552;34;20129;-67
2023/04/07 08:54:37;;;;;;;15.88;8.80;;;;;;;;;;4180419;34;20060;-67
2023/04/07 08:57:03;;;;;;;18.08;9.85;;;;;;;;;;4182144;34;20070;-67
2023/04/07 08:59:32;;;;;;;16.58;7.00;;;;;;;;;;4188524;34;20297;-67
2023/04/07 09:02:05;;;;;;;18.75;7.45;;;;;;;;;;4193253;34;20386;-68
2023/04/07 09:04:31;;;;;;;16.58;7.97;;;;;;;;;;4179093;34;20216;-68
2023/04/07 09:06:57;;;;;;;15.77;8.18;;;;;;;;;;4178058;34;20059;-68
2023/04/07 09:09:23;;;;;;;18.50;9.45;;;;;;;;;;4178072;34;20073;-69
2023/04/07 09:11:50;;;;;;;21.33;10.02;;;;;;;;;;4176884;34;20089;-71
2023/04/07 09:14:17;;;;;;;20.45;10.07;;;;;;;;;;4191469;34;20099;-68
2023/04/07 09:16:44;;;;;;;26.75;9.38;;;;;;;;;;4202016;34;20505;-69
2023/04/07 09:19:10;;;;;;;23.42;11.38;;;;;;;;;;4194998;34;20085;-69
2023/04/07 09:21:47;;;;;;;18.85;8.80;;;;;;;;;;4194868;34;20143;-69
2023/04/07 09:24:26;;;;;;;25.20;9.32;;;;;;;;;;4165839;34;20056;-68
2023/04/07 09:27:12;;;;;;;18.98;9.10;;;;;;;;;;4179149;34;20048;-67
2023/04/07 09:29:40;;;;;;;19.48;10.10;;;;;;;;;;4178272;34;20491;-70
2023/04/07 09:32:06;;;;;;;26.52;10.38;;;;;;;;;;4163700;34;20102;-69
2023/04/07 09:34:34;;;;;;;30.67;12.68;;;;;;;;;;4159304;34;20081;-68
2023/04/07 09:37:01;;;;;;;34.25;12.85;;;;;;;;;;4160780;34;20044;-68
2023/04/07 09:39:27;;;;;;;22.90;10.20;;;;;;;;;;4159430;34;20094;-70
2023/04/07 09:41:53;;;;;;;22.17;10.65;;;;;;;;;;4162252;34;20062;-67
2023/04/07 09:44:21;;;;;;;18.23;8.00;;;;;;;;;;4161374;34;20078;-68
2023/04/07 09:46:57;;;;;;;21.98;8.68;;;;;;;;;;4157905;34;20614;-68
2023/04/07 09:49:24;;;;;;;19.25;10.05;;;;;;;;;;4150123;34;20060;-68
2023/04/07 09:51:53;;;;;;;12.50;8.25;;;;;;;;;;4154474;34;20568;-67
2023/04/07 09:54:38;;;;;;;29.55;10.77;;;;;;;;;;4144887;34;20407;-67
2023/04/07 09:57:05;;;;;;;21.05;8.82;;;;;;;;;;4181591;34;20212;-66
2023/04/07 09:59:32;;;;;;;22.05;9.82;;;;;;;;;;4175205;34;20494;-67
2023/04/07 10:01:59;;;;;;;18.95;8.55;;;;;;;;;;4188878;34;20189;-68
2023/04/07 10:04:26;;;;;;;17.80;8.75;;;;;;;;;;4204393;34;20075;-68
2023/04/07 10:06:53;;;;;;;24.23;9.48;;;;;;;;;;4196357;34;20053;-68
2023/04/07 10:09:21;;;;;;;21.60;9.90;;;;;;;;;;4192534;34;20063;-70
2023/04/07 10:11:49;;;;;;;26.50;12.48;;;;;;;;;;4194712;34;20044;-68
2023/04/07 10:14:16;;;;;;;16.73;9.85;;;;;;;;;;4194406;34;20055;-68
2023/04/07 10:16:43;;;;;;;20.67;11.02;;;;;;;;;;4200092;34;20043;-67
2023/04/07 10:19:09;;;;;;;26.10;12.90;;;;;;;;;;4200678;34;20119;-70
2023/04/07 10:21:37;;;;;;;20.88;10.02;;;;;;;;;;4218958;33;20097;-68
2023/04/07 10:24:19;;;;;;;20.77;9.73;;;;;;;;;;4224641;33;20076;-67
2023/04/07 10:26:56;;;;;;;21.30;10.68;;;;;;;;;;4206832;34;20509;-67
2023/04/07 10:29:23;;;;;;;21.37;9.95;;;;;;;;;;4205797;34;20054;-68
2023/04/07 10:31:58;;;;;;;19.50;10.35;;;;;;;;;;4207862;34;20051;-68
2023/04/07 10:34:43;;;;;;;22.25;9.40;;;;;;;;;;4208165;34;20543;-68
2023/04/07 10:37:13;;;;;;;22.52;11.75;;;;;;;;;;4206410;34;20055;-69
2023/04/07 10:39:39;;;;;;;21.27;11.48;;;;;;;;;;4182823;34;20446;-69
2023/04/07 10:42:05;;;;;;;18.00;8.18;;;;;;;;;;4187862;34;20043;-69
2023/04/07 10:44:38;;;;;;;17.95;10.27;;;;;;;;;;4182383;34;20051;-68
2023/04/07 10:47:05;;;;;;;24.27;11.65;;;;;;;;;;4187246;34;20767;-68
2023/04/07 10:49:33;;;;;;;23.67;10.80;;;;;;;;;;4191099;34;20470;-68
2023/04/07 10:52:11;;;;;;;19.62;10.30;;;;;;;;;;4174397;34;20069;-69
2023/04/07 10:54:41;;;;;;;17.77;10.20;;;;;;;;;;4178004;34;20120;-70
2023/04/07 10:57:09;;;;;;;17.70;10.60;;;;;;;;;;4196153;34;20069;-70
2023/04/07 10:59:37;;;;;;;29.35;10.65;;;;;;;;;;4207563;34;20051;-68
2023/04/07 11:02:16;;;;;;;20.52;9.93;;;;;;;;;;4359882;28;20185;-68
2023/04/07 11:04:43;;;;;;;21.33;11.52;;;;;;;;;;4234471;33;20098;-69
2023/04/07 11:07:10;;;;;;;18.10;8.85;;;;;;;;;;4219607;33;20057;-68
2023/04/07 11:09:36;;;;;;;20.23;10.48;;;;;;;;;;4199784;34;20076;-69
2023/04/07 11:12:03;;;;;;;17.87;8.90;;;;;;;;;;4220788;33;20612;-69
2023/04/07 11:14:30;;;;;;;20.10;10.32;;;;;;;;;;4219617;33;20073;-70
2023/04/07 11:16:57;;;;;;;15.02;7.87;;;;;;;;;;4220433;33;20035;-68
2023/04/07 11:19:23;;;;;;;19.17;10.05;;;;;;;;;;4221472;33;20059;-69
2023/04/07 11:21:50;;;;;;;21.73;10.80;;;;;;;;;;4225868;33;20069;-69
2023/04/07 11:24:32;;;;;;;23.05;12.02;;;;;;;;;;4179700;34;20500;-69
2023/04/07 11:26:58;;;;;;;31.02;12.25;;;;;;;;;;4177962;34;20113;-69
2023/04/07 11:29:28;;;;;;;25.60;13.95;;;;;;;;;;4207728;34;20100;-67
2023/04/07 11:31:54;;;;;;;21.35;11.45;;;;;;;;;;4206909;34;20455;-69
2023/04/07 11:34:27;;;;;;;26.85;12.90;;;;;;;;;;4207353;34;20424;-70
2023/04/07 11:36:58;;;;;;;31.85;14.75;;;;;;;;;;4178884;34;20105;-68
2023/04/07 11:39:30;;;;;;;31.62;14.50;;;;;;;;;;4183437;34;20237;-72
2023/04/07 11:41:56;;;;;;;36.20;14.45;;;;;;;;;;4178263;34;20066;-69
2023/04/07 11:44:25;;;;;;;48.17;13.77;;;;;;;;;;4181670;34;20460;-69
2023/04/07 11:46:53;;;;;;;39.60;15.13;;;;;;;;;;4194192;34;20051;-69
2023/04/07 11:49:20;;;;;;;46.28;17.65;;;;;;;;;;4197399;34;20994;-70
2023/04/07 11:51:46;;;;;;;50.67;16.58;;;;;;;;;;4194992;34;20755;-69
2023/04/07 11:54:12;;;;;;;46.63;13.80;;;;;;;;;;4193628;34;20044;-70
2023/04/07 11:56:45;;;;;;;42.95;17.58;;;;;;;;;;4204918;34;20043;-71
2023/04/07 11:59:19;;;;;;;42.47;18.10;;;;;;;;;;4192601;34;20053;-69
2023/04/07 12:01:46;;;;;;;43.47;15.38;;;;;;;;;;4206680;34;20081;-71
2023/04/07 12:04:16;;;;;;;38.38;15.75;;;;;;;;;;4206997;34;20054;-70
2023/04/07 12:06:42;;;;;;;36.92;15.57;;;;;;;;;;4205280;34;20069;-69
2023/04/07 12:09:23;;;;;;;43.00;16.55;;;;;;;;;;4204956;34;20457;-72
2023/04/07 12:11:49;;;;;;;32.72;16.75;;;;;;;;;;4199656;34;20035;-69
2023/04/07 12:14:16;;;;;;;34.80;17.48;;;;;;;;;;4202337;34;20056;-69
2023/04/07 12:16:41;;;;;;;33.70;16.83;;;;;;;;;;4214987;34;20064;-70
2023/04/07 12:19:08;;;;;;;42.08;17.75;;;;;;;;;;4197390;34;20097;-70
2023/04/07 12:21:41;;;;;;;36.75;16.02;;;;;;;;;;4199026;34;20065;-69
2023/04/07 12:24:07;;;;;;;43.40;17.20;;;;;;;;;;4196703;34;20339;-69
2023/04/07 12:26:33;;;;;;;34.40;17.20;;;;;;;;;;4200596;34;20098;-70
2023/04/07 12:29:03;;;;;;;44.92;16.70;;;;;;;;;;4194019;34;20054;-71
2023/04/07 12:31:33;;;;;;;51.83;20.35;;;;;;;;;;4198395;34;20926;-68
2023/04/07 12:34:00;;;;;;;46.50;21.30;;;;;;;;;;4199935;34;20054;-67
2023/04/07 12:36:28;;;;;;;53.13;21.25;;;;;;;;;;4198118;34;20051;-69
2023/04/07 12:38:55;;;;;;;55.58;18.15;;;;;;;;;;4198834;34;20051;-67
2023/04/07 12:41:21;;;;;;;30.85;16.12;;;;;;;;;;4199707;34;20048;-67
2023/04/07 12:43:48;;;;;;;42.97;16.85;;;;;;;;;;4216381;34;20151;-69
2023/04/07 12:46:14;;;;;;;34.30;16.62;;;;;;;;;;4220031;33;20034;-68
2023/04/07 12:48:40;;;;;;;34.97;16.02;;;;;;;;;;4220183;34;20054;-68
2023/04/07 12:51:06;;;;;;;38.10;18.85;;;;;;;;;;4223358;33;20047;-68
2023/04/07 12:53:33;;;;;;;35.38;17.02;;;;;;;;;;4232511;33;20039;-68
2023/04/07 12:55:59;;;;;;;33.63;17.30;;;;;;;;;;4236576;33;20084;-69
2023/04/07 12:58:25;;;;;;;33.28;18.73;;;;;;;;;;4224318;34;20062;-69
2023/04/07 13:00:52;;;;;;;35.45;17.10;;;;;;;;;;4224017;34;20046;-69
2023/04/07 13:03:18;;;;;;;30.27;15.43;;;;;;;;;;4222391;33;20113;-71
2023/04/07 13:05:53;;;;;;;25.33;15.45;;;;;;;;;;4221158;34;20046;-70
2023/04/07 13:08:20;;;;;;;24.65;14.43;;;;;;;;;;4222823;34;20434;-71
2023/04/07 13:10:46;;;;;;;32.13;16.12;;;;;;;;;;4221633;34;20088;-70
2023/04/07 13:13:12;;;;;;;39.20;17.48;;;;;;;;;;4209766;34;20108;-69
2023/04/07 13:15:38;;;;;;;26.80;13.75;;;;;;;;;;4220123;34;20474;-72
2023/04/07 13:18:05;;;;;;;25.58;14.25;;;;;;;;;;4221353;34;20076;-69
2023/04/07 13:20:31;;;;;;;31.42;16.40;;;;;;;;;;4222051;34;20226;-68
2023/04/07 13:22:57;;;;;;;29.35;14.95;;;;;;;;;;4221812;34;20114;-68
2023/04/07 13:25:23;;;;;;;29.23;15.98;;;;;;;;;;4221649;34;20446;-69
2023/04/07 13:27:49;;;;;;;26.77;14.93;;;;;;;;;;4206261;34;20047;-70
2023/04/07 13:30:16;;;;;;;27.55;14.48;;;;;;;;;;4220366;34;21012;-70
2023/04/07 13:32:42;;;;;;;27.10;14.95;;;;;;;;;;4234772;33;20405;-69
2023/04/07 13:35:08;;;;;;;23.40;13.60;;;;;;;;;;4231635;33;20089;-69
2023/04/07 13:37:34;;;;;;;24.20;13.40;;;;;;;;;;4236081;33;20393;-69
2023/04/07 13:40:00;;;;;;;22.75;12.75;;;;;;;;;;4231176;33;20085;-70
2023/04/07 13:42:27;;;;;;;25.02;13.30;;;;;;;;;;4219287;34;20796;-70
2023/04/07 13:44:53;;;;;;;20.00;12.10;;;;;;;;;;4206182;34;20534;-71
2023/04/07 13:47:20;;;;;;;24.12;13.20;;;;;;;;;;4203440;34;20378;-67
2023/04/07 13:49:46;;;;;;;24.35;14.45;;;;;;;;;;4206546;34;20370;-70
2023/04/07 13:52:13;;;;;;;21.52;13.00;;;;;;;;;;4206664;34;20072;-69
2023/04/07 13:54:39;;;;;;;29.25;16.15;;;;;;;;;;4203849;34;20043;-70
2023/04/07 13:57:05;;;;;;;30.30;16.05;;;;;;;;;;4192809;34;20100;-68
2023/04/07 13:59:31;;;;;;;34.33;15.98;;;;;;;;;;4204731;34;20047;-67
2023/04/07 14:01:57;;;;;;;25.23;13.68;;;;;;;;;;4204998;34;20229;-68
2023/04/07 14:04:24;;;;;;;30.00;15.50;;;;;;;;;;4193028;34;20060;-72
2023/04/07 14:06:50;;;;;;;35.95;17.67;;;;;;;;;;4189231;34;20080;-71
2023/04/07 14:09:16;;;;;;;30.73;17.40;;;;;;;;;;4190628;34;20162;-70
2023/04/07 14:11:42;;;;;;;33.22;17.08;;;;;;;;;;4189193;34;20052;-70
2023/04/07 14:14:09;;;;;;;27.80;16.33;;;;;;;;;;4189689;34;20078;-70
2023/04/07 14:16:35;;;;;;;28.75;14.90;;;;;;;;;;4189916;34;20077;-70
2023/04/07 14:19:02;;;;;;;32.53;17.25;;;;;;;;;;4189991;34;20374;-69
2023/04/07 14:21:28;;;;;;;33.67;17.33;;;;;;;;;;4192861;34;20065;-70
2023/04/07 14:23:54;;;;;;;31.12;17.62;;;;;;;;;;4195236;34;20849;-70
2023/04/07 14:26:21;;;;;;;34.50;17.37;;;;;;;;;;4203287;34;20074;-69
2023/04/07 14:28:47;;;;;;;35.45;18.12;;;;;;;;;;4216726;33;20544;-72
2023/04/07 14:31:14;;;;;;;31.87;17.08;;;;;;;;;;4216821;33;20851;-68
2023/04/07 14:33:41;;;;;;;34.70;19.20;;;;;;;;;;4220859;33;20082;-69
2023/04/07 14:36:08;;;;;;;31.20;18.10;;;;;;;;;;4221573;33;20098;-68
2023/04/07 14:38:34;;;;;;;28.35;16.23;;;;;;;;;;4220924;33;20069;-70
2023/04/07 14:41:02;;;;;;;28.55;16.15;;;;;;;;;;4219895;33;20084;-70
2023/04/07 14:43:28;;;;;;;30.23;17.27;;;;;;;;;;4218955;33;20120;-68
2023/04/07 14:45:55;;;;;;;31.27;18.45;;;;;;;;;;4206859;34;21241;-71
2023/04/07 14:48:21;;;;;;;30.55;17.77;;;;;;;;;;4207458;34;20127;-68
2023/04/07 14:50:47;;;;;;;32.42;18.50;;;;;;;;;;4205538;34;20169;-69
2023/04/07 14:53:14;;;;;;;30.85;16.30;;;;;;;;;;4206938;34;20065;-72
2023/04/07 14:55:41;;;;;;;28.67;18.33;;;;;;;;;;4202008;34;20068;-69
2023/04/07 14:58:07;;;;;;;26.67;15.68;;;;;;;;;;4207996;34;20122;-69
2023/04/07 15:00:34;;;;;;;31.85;17.12;;;;;;;;;;4204775;34;20065;-69
2023/04/07 15:03:00;;;;;;;22.52;13.90;;;;;;;;;;4204428;34;20042;-68
2023/04/07 15:05:28;;;;;;;25.33;13.07;;;;;;;;;;4203980;34;20051;-73
2023/04/07 15:07:54;;;;;;;25.27;13.70;;;;;;;;;;4202739;34;20086;-70
2023/04/07 15:10:20;;;;;;;25.42;14.23;;;;;;;;;;4203962;34;20106;-69
2023/04/07 15:12:47;;;;;;;23.15;14.05;;;;;;;;;;4204411;34;20031;-69
2023/04/07 15:15:14;;;;;;;24.05;14.50;;;;;;;;;;4202438;34;20055;-69
2023/04/07 15:17:40;;;;;;;24.85;13.05;;;;;;;;;;4193302;34;20065;-70
2023/04/07 15:20:06;;;;;;;26.60;12.07;;;;;;;;;;4191049;34;20081;-67
2023/04/07 15:22:32;;;;;;;21.58;11.82;;;;;;;;;;4191909;34;20319;-68
2023/04/07 15:24:59;;;;;;;19.98;12.25;;;;;;;;;;4193915;34;20437;-68
2023/04/07 15:27:25;;;;;;;20.20;12.23;;;;;;;;;;4195393;34;20051;-67
2023/04/07 15:29:51;;;;;;;16.05;10.27;;;;;;;;;;4195021;34;20111;-69
2023/04/07 15:32:17;;;;;;;17.42;10.45;;;;;;;;;;4193943;34;20279;-68
2023/04/07 15:34:46;;;;;;;20.12;9.25;;;;;;;;;;4217626;34;20854;-67
2023/04/07 15:37:13;;;;;;;19.85;8.98;;;;;;;;;;4231521;33;20090;-68
2023/04/07 15:39:39;;;;;;;18.87;10.02;;;;;;;;;;4232292;33;20050;-69
2023/04/07 15:42:11;;;;;;;13.05;8.18;;;;;;;;;;4217163;33;20076;-69
2023/04/07 15:44:38;;;;;;;14.70;9.70;;;;;;;;;;4203348;34;20373;-70
2023/04/07 15:47:05;;;;;;;13.65;8.07;;;;;;;;;;4205320;34;20054;-69
2023/04/07 15:49:32;;;;;;;11.68;7.37;;;;;;;;;;4205814;34;20107;-68
2023/04/07 15:51:58;;;;;;;11.12;8.10;;;;;;;;;;4205995;34;20120;-69
2023/04/07 15:54:25;;;;;;;12.52;7.65;;;;;;;;;;4205098;34;20474;-69
2023/04/07 15:56:51;;;;;;;11.23;6.97;;;;;;;;;;4192051;34;20035;-68
2023/04/07 15:59:17;;;;;;;13.75;7.00;;;;;;;;;;4184715;34;20189;-67
2023/04/07 16:01:44;;;;;;;12.85;7.03;;;;;;;;;;4183884;34;20123;-68
2023/04/07 16:04:10;;;;;;;12.18;6.68;;;;;;;;;;4203266;34;20428;-68
2023/04/07 16:06:36;;;;;;;11.40;6.55;;;;;;;;;;4203054;34;20051;-72
2023/04/07 16:09:02;;;;;;;16.48;5.85;;;;;;;;;;4191522;34;20055;-69
2023/04/07 16:11:28;;;;;;;12.48;6.87;;;;;;;;;;4180224;34;20325;-68
2023/04/07 16:13:55;;;;;;;9.05;6.37;;;;;;;;;;4200459;34;20047;-68
2023/04/07 16:16:21;;;;;;;7.90;5.20;;;;;;;;;;4201875;34;20064;-69
2023/04/07 16:18:47;;;;;;;6.90;5.32;;;;;;;;;;4194885;34;20403;-69
2023/04/07 16:21:13;;;;;;;7.55;4.90;;;;;;;;;;4191964;34;20062;-68
2023/04/07 16:23:39;;;;;;;9.55;5.28;;;;;;;;;;4192281;34;20071;-68
2023/04/07 16:26:05;;;;;;;12.98;7.15;;;;;;;;;;4191473;34;20047;-68